Time;durP1;ratioP1;P1;durP2;ratioP2;P2;SDS_P1;SDS_P2;PMS_P1;PMS_P2;Temp;Humidity;BMP_temperature;BMP_pressure;BME280_temperature;BME280_humidity;BME280_pressure;Samples;Min_cycle;Max_cycle;Signal;HPM_P1;HPM_P2
2023/06/30 00:01:55;;;;;;;5.78;4.13;;;15.50;99.90;;;;;;5054456;28;20029;-46
2023/06/30 00:04:23;;;;;;;7.10;4.10;;;15.40;99.90;;;;;;5054442;28;20029;-46
2023/06/30 00:06:50;;;;;;;8.07;4.80;;;15.40;99.90;;;;;;5054277;28;20136;-46
2023/06/30 00:09:18;;;;;;;7.18;4.30;;;15.40;99.90;;;;;;5054294;28;20102;-43
2023/06/30 00:11:44;;;;;;;7.28;4.65;;;15.50;99.90;;;;;;5054228;28;20033;-54
2023/06/30 00:14:09;;;;;;;7.72;4.50;;;15.40;99.90;;;;;;5054291;28;20393;-44
2023/06/30 00:16:35;;;;;;;13.25;5.13;;;15.40;99.90;;;;;;5054246;28;20072;-50
2023/06/30 00:19:03;;;;;;;6.07;4.05;;;15.40;99.90;;;;;;5054087;28;20021;-50
2023/06/30 00:21:28;;;;;;;5.65;4.18;;;15.40;99.90;;;;;;5054023;28;20421;-47
2023/06/30 00:24:01;;;;;;;6.63;4.43;;;15.40;99.90;;;;;;5053975;28;20032;-47
2023/06/30 00:26:30;;;;;;;6.43;4.28;;;15.30;99.90;;;;;;5054224;28;20120;-57
2023/06/30 00:29:02;;;;;;;5.10;3.58;;;15.30;99.90;;;;;;5053736;28;20037;-54
2023/06/30 00:31:28;;;;;;;5.10;3.17;;;15.30;99.90;;;;;;5053941;28;20041;-43
2023/06/30 00:33:55;;;;;;;4.25;2.20;;;15.30;99.90;;;;;;5053921;28;20035;-44
2023/06/30 00:36:21;;;;;;;5.57;2.40;;;15.30;99.90;;;;;;5053860;28;20048;-43
2023/06/30 00:38:47;;;;;;;3.17;2.13;;;15.30;99.90;;;;;;5053930;28;20063;-45
2023/06/30 00:41:13;;;;;;;2.80;1.50;;;15.30;99.90;;;;;;5053601;28;20021;-46
2023/06/30 00:43:38;;;;;;;4.88;1.70;;;15.30;99.90;;;;;;5053765;28;20101;-43
2023/06/30 00:46:05;;;;;;;2.53;1.52;;;15.30;99.90;;;;;;5053580;28;20078;-48
2023/06/30 00:48:31;;;;;;;2.92;1.80;;;15.20;99.90;;;;;;5053629;28;20091;-48
2023/06/30 00:50:57;;;;;;;3.53;1.50;;;15.10;99.90;;;;;;5053264;28;20051;-43
2023/06/30 00:53:24;;;;;;;6.30;2.08;;;15.10;99.90;;;;;;5053460;28;20100;-50
2023/06/30 00:55:50;;;;;;;3.20;1.67;;;15.00;99.90;;;;;;5053484;28;20492;-49
2023/06/30 00:58:16;;;;;;;3.05;1.85;;;15.00;99.90;;;;;;5052031;28;20033;-50
2023/06/30 01:00:42;;;;;;;4.00;1.80;;;15.00;99.90;;;;;;5053494;28;20025;-51
2023/06/30 01:03:39;;;;;;;2.90;1.50;;;14.90;99.90;;;;;;5053289;28;20207;-43
2023/06/30 01:06:12;;;;;;;2.90;1.80;;;14.80;99.90;;;;;;5052102;28;20140;-45
2023/06/30 01:08:44;;;;;;;4.68;1.80;;;14.70;99.90;;;;;;5053305;28;20082;-55
2023/06/30 01:11:11;;;;;;;3.10;1.70;;;14.70;99.90;;;;;;5053236;28;20532;-46
2023/06/30 01:13:38;;;;;;;6.28;2.05;;;14.60;99.90;;;;;;5052968;28;20040;-45
2023/06/30 01:16:05;;;;;;;4.97;1.83;;;14.60;99.90;;;;;;5052963;28;20127;-48
2023/06/30 01:18:34;;;;;;;2.88;1.42;;;14.60;99.90;;;;;;5052844;28;20099;-43
2023/06/30 01:21:00;;;;;;;3.28;1.40;;;14.60;99.90;;;;;;5053014;28;20053;-45
2023/06/30 01:23:35;;;;;;;1.80;1.20;;;14.50;99.90;;;;;;5052968;28;20025;-50
2023/06/30 01:26:02;;;;;;;8.23;2.03;;;14.50;99.90;;;;;;5052768;28;20029;-46
2023/06/30 01:28:28;;;;;;;4.60;1.42;;;14.50;99.90;;;;;;5053190;28;20040;-48
2023/06/30 01:30:56;;;;;;;3.67;1.42;;;14.40;99.90;;;;;;5052799;28;20036;-52
2023/06/30 01:33:21;;;;;;;3.97;1.63;;;14.40;99.90;;;;;;5052856;28;20844;-48
2023/06/30 01:35:47;;;;;;;2.70;1.35;;;14.30;99.90;;;;;;5052665;28;20045;-48
2023/06/30 01:38:13;;;;;;;3.05;1.60;;;14.30;99.90;;;;;;5052752;28;20104;-46
2023/06/30 01:40:39;;;;;;;3.13;1.27;;;14.30;99.90;;;;;;5052492;28;20017;-46
2023/06/30 01:43:05;;;;;;;3.17;1.60;;;14.30;99.90;;;;;;5052605;28;20029;-44
2023/06/30 01:45:31;;;;;;;5.15;1.52;;;14.20;99.90;;;;;;5052773;28;20029;-51
2023/06/30 01:47:58;;;;;;;3.90;1.35;;;14.20;99.90;;;;;;5051312;28;20021;-44
2023/06/30 01:50:29;;;;;;;2.50;1.40;;;14.20;99.90;;;;;;5052263;28;20490;-43
2023/06/30 01:52:56;;;;;;;4.13;1.40;;;14.10;99.90;;;;;;5052112;28;20040;-50
2023/06/30 01:55:21;;;;;;;3.00;1.52;;;14.10;99.90;;;;;;5052091;28;20485;-54
2023/06/30 01:57:47;;;;;;;2.63;1.42;;;14.00;99.90;;;;;;5052171;28;20021;-47
2023/06/30 02:00:13;;;;;;;2.17;1.52;;;14.00;99.90;;;;;;5052038;28;20074;-56
2023/06/30 02:02:40;;;;;;;2.78;1.42;;;13.90;99.90;;;;;;5052074;28;20032;-49
2023/06/30 02:05:06;;;;;;;1.98;1.10;;;13.90;99.90;;;;;;5052043;28;20017;-53
2023/06/30 02:07:31;;;;;;;3.30;1.58;;;13.90;99.90;;;;;;5052068;28;20029;-55
2023/06/30 02:09:57;;;;;;;2.47;1.40;;;13.80;99.90;;;;;;5052044;28;20021;-51
2023/06/30 02:12:23;;;;;;;6.45;1.48;;;13.80;99.90;;;;;;5051804;28;20098;-52
2023/06/30 02:14:48;;;;;;;5.22;1.58;;;13.80;99.90;;;;;;5051957;28;20024;-56
2023/06/30 02:17:14;;;;;;;2.63;1.45;;;13.70;99.90;;;;;;5050767;28;20073;-50
2023/06/30 02:19:40;;;;;;;4.97;1.42;;;13.70;99.90;;;;;;5051970;28;20063;-52
2023/06/30 02:22:05;;;;;;;1.73;1.13;;;13.60;99.90;;;;;;5051715;28;20111;-50
2023/06/30 02:24:31;;;;;;;7.95;1.58;;;13.60;99.90;;;;;;5051746;28;20024;-56
2023/06/30 02:26:56;;;;;;;2.67;1.30;;;13.50;99.90;;;;;;5051845;28;20029;-57
2023/06/30 02:29:22;;;;;;;2.88;1.50;;;13.50;99.90;;;;;;5051568;28;20075;-50
2023/06/30 02:31:48;;;;;;;3.25;1.38;;;13.40;99.90;;;;;;5051656;28;20132;-55
2023/06/30 02:34:14;;;;;;;3.63;1.30;;;13.40;99.90;;;;;;5051242;28;20024;-42
2023/06/30 02:36:39;;;;;;;2.97;1.50;;;13.30;99.90;;;;;;5051715;28;20509;-54
2023/06/30 02:39:05;;;;;;;2.53;1.35;;;13.30;99.90;;;;;;5051701;28;20365;-52
2023/06/30 02:41:30;;;;;;;2.85;1.40;;;13.20;99.90;;;;;;5051330;28;20032;-45
2023/06/30 02:43:56;;;;;;;1.77;1.15;;;13.20;99.90;;;;;;5051387;28;20056;-48
2023/06/30 02:46:21;;;;;;;2.47;1.40;;;13.20;99.90;;;;;;5049862;28;20028;-44
2023/06/30 02:48:47;;;;;;;4.50;1.58;;;13.10;99.90;;;;;;5051162;28;20025;-46
2023/06/30 02:51:13;;;;;;;5.53;1.50;;;13.10;99.90;;;;;;5051081;28;20155;-55
2023/06/30 02:53:38;;;;;;;4.25;1.48;;;13.20;99.90;;;;;;5051018;28;20393;-46
2023/06/30 02:56:04;;;;;;;2.20;1.27;;;13.10;99.90;;;;;;5051137;28;20028;-50
2023/06/30 02:58:30;;;;;;;3.17;1.55;;;13.10;99.90;;;;;;5049673;28;20397;-46
2023/06/30 03:00:56;;;;;;;2.17;1.10;;;13.00;99.90;;;;;;5051071;28;20277;-56
2023/06/30 03:03:22;;;;;;;2.33;1.20;;;13.10;99.90;;;;;;5050694;28;20432;-49
2023/06/30 03:05:48;;;;;;;5.07;1.33;;;13.10;99.90;;;;;;5050961;28;20031;-48
2023/06/30 03:08:13;;;;;;;4.85;1.27;;;13.00;99.90;;;;;;5050862;28;20111;-46
2023/06/30 03:10:39;;;;;;;1.98;1.35;;;13.00;99.90;;;;;;5050343;28;20067;-46
2023/06/30 03:13:05;;;;;;;2.70;1.50;;;12.90;99.90;;;;;;5050753;28;20037;-47
2023/06/30 03:15:30;;;;;;;3.75;1.27;;;12.90;99.90;;;;;;5042525;28;20038;-42
2023/06/30 03:17:56;;;;;;;1.98;1.17;;;12.80;99.90;;;;;;5045266;28;20465;-42
2023/06/30 03:20:22;;;;;;;6.55;1.27;;;12.80;99.90;;;;;;5044597;28;20021;-42
2023/06/30 03:22:48;;;;;;;3.83;1.13;;;12.80;99.90;;;;;;5043172;28;20397;-55
2023/06/30 03:25:13;;;;;;;1.73;1.25;;;12.80;99.90;;;;;;5046313;28;20021;-50
2023/06/30 03:27:40;;;;;;;2.72;1.08;;;12.80;99.90;;;;;;5042749;28;20026;-56
2023/06/30 03:30:06;;;;;;;3.22;1.17;;;12.80;99.90;;;;;;5050286;28;20051;-51
2023/06/30 03:32:32;;;;;;;3.10;1.35;;;12.70;99.90;;;;;;5050362;28;20080;-55
2023/06/30 03:34:59;;;;;;;5.32;1.48;;;12.70;99.90;;;;;;5050466;28;20067;-47
2023/06/30 03:37:25;;;;;;;4.93;1.50;;;12.60;99.90;;;;;;5050208;28;20473;-55
2023/06/30 03:39:51;;;;;;;2.88;1.13;;;12.50;99.90;;;;;;5050498;28;20115;-52
2023/06/30 03:42:16;;;;;;;2.95;1.25;;;12.50;99.90;;;;;;5050229;28;20033;-50
2023/06/30 03:44:42;;;;;;;1.80;1.10;;;12.50;99.90;;;;;;5050281;28;20020;-49
2023/06/30 03:47:07;;;;;;;2.25;1.20;;;12.60;99.90;;;;;;5050013;28;20029;-42
2023/06/30 03:49:33;;;;;;;3.22;1.33;;;12.60;99.90;;;;;;5048526;28;20210;-47
2023/06/30 03:51:59;;;;;;;2.92;1.30;;;12.60;99.90;;;;;;5049817;28;20048;-49
2023/06/30 03:54:24;;;;;;;2.65;1.13;;;12.60;99.90;;;;;;5050375;28;20448;-54
2023/06/30 03:56:50;;;;;;;7.13;1.30;;;12.70;99.90;;;;;;5050087;28;20036;-47
2023/06/30 03:59:16;;;;;;;8.70;1.10;;;12.70;99.90;;;;;;5050156;28;20031;-44
2023/06/30 04:01:42;;;;;;;1.73;1.13;;;12.70;99.90;;;;;;5050265;28;20024;-44
2023/06/30 04:04:08;;;;;;;3.47;1.45;;;12.70;99.90;;;;;;5050155;28;20021;-46
2023/06/30 04:06:33;;;;;;;2.15;1.10;;;12.60;99.90;;;;;;5050048;28;20020;-48
2023/06/30 04:09:00;;;;;;;2.33;1.25;;;12.70;99.90;;;;;;5050186;28;20075;-48
2023/06/30 04:11:25;;;;;;;2.70;1.23;;;12.70;99.90;;;;;;5050106;28;20389;-50
2023/06/30 04:13:51;;;;;;;2.25;1.10;;;12.70;99.90;;;;;;5050484;28;20056;-40
2023/06/30 04:16:17;;;;;;;2.33;1.40;;;12.70;99.90;;;;;;5050040;28;20045;-49
2023/06/30 04:18:43;;;;;;;3.00;1.33;;;12.80;99.90;;;;;;5050076;28;20135;-49
2023/06/30 04:21:09;;;;;;;4.82;1.55;;;12.80;99.90;;;;;;5048835;28;20029;-42
2023/06/30 04:23:35;;;;;;;3.38;1.13;;;12.80;99.90;;;;;;5049815;28;20021;-47
2023/06/30 04:26:01;;;;;;;5.45;1.30;;;12.90;99.90;;;;;;5050057;28;20033;-42
2023/06/30 04:28:27;;;;;;;3.50;1.40;;;12.90;99.90;;;;;;5048494;28;20029;-42
2023/06/30 04:30:52;;;;;;;1.92;1.10;;;12.90;99.90;;;;;;5048948;28;20418;-42
2023/06/30 04:33:18;;;;;;;2.20;1.15;;;12.90;99.90;;;;;;5047618;28;20033;-42
2023/06/30 04:35:44;;;;;;;2.88;1.08;;;12.90;99.90;;;;;;5048594;28;20017;-52
2023/06/30 04:38:10;;;;;;;2.08;1.38;;;13.00;99.90;;;;;;5049060;28;20401;-42
2023/06/30 04:40:35;;;;;;;4.80;1.42;;;13.00;99.90;;;;;;5050782;28;20052;-41
2023/06/30 04:43:02;;;;;;;3.05;1.30;;;13.00;99.90;;;;;;5052806;28;20059;-42
2023/06/30 04:45:27;;;;;;;3.92;1.20;;;13.00;99.90;;;;;;5051328;28;20023;-42
2023/06/30 04:47:53;;;;;;;3.58;1.20;;;13.00;99.90;;;;;;5052556;28;20028;-46
2023/06/30 04:50:19;;;;;;;2.90;1.42;;;13.10;99.90;;;;;;5051351;28;20021;-52
2023/06/30 04:52:44;;;;;;;2.83;1.20;;;13.00;99.90;;;;;;5039386;28;20087;-46
2023/06/30 04:55:10;;;;;;;2.08;1.10;;;13.10;99.90;;;;;;5052545;28;20128;-49
2023/06/30 04:57:35;;;;;;;1.95;1.15;;;13.10;99.90;;;;;;5052223;28;20362;-45
2023/06/30 05:00:02;;;;;;;2.03;1.13;;;13.30;99.90;;;;;;5053402;28;20032;-48
2023/06/30 05:02:27;;;;;;;3.15;1.48;;;13.30;99.90;;;;;;5053235;28;20029;-53
2023/06/30 05:04:53;;;;;;;3.63;1.58;;;13.40;99.90;;;;;;5053265;28;20021;-44
2023/06/30 05:07:19;;;;;;;7.72;1.27;;;13.60;99.90;;;;;;5053606;28;20028;-52
2023/06/30 05:09:46;;;;;;;7.05;1.58;;;13.70;99.90;;;;;;5039305;28;20013;-53
2023/06/30 05:12:12;;;;;;;1.92;1.15;;;13.90;99.90;;;;;;5053168;28;20577;-46
2023/06/30 05:14:38;;;;;;;2.55;1.15;;;14.00;99.90;;;;;;5053231;28;20079;-46
2023/06/30 05:17:04;;;;;;;2.28;1.20;;;14.10;99.90;;;;;;5053047;28;20056;-44
2023/06/30 05:19:29;;;;;;;5.78;1.30;;;14.20;99.90;;;;;;5052986;28;20078;-47
2023/06/30 05:21:55;;;;;;;1.33;0.90;;;14.30;99.90;;;;;;5053137;28;20489;-47
2023/06/30 05:24:21;;;;;;;2.90;1.25;;;14.30;99.90;;;;;;5052896;28;20029;-51
2023/06/30 05:26:46;;;;;;;3.22;1.20;;;14.30;99.90;;;;;;5053114;28;20086;-46
2023/06/30 05:29:12;;;;;;;5.10;1.25;;;14.30;99.90;;;;;;5053072;28;20031;-49
2023/06/30 05:31:38;;;;;;;2.08;1.10;;;14.30;99.90;;;;;;5052683;28;20505;-50
2023/06/30 05:34:03;;;;;;;2.60;1.13;;;14.40;99.90;;;;;;5052677;28;20028;-52
2023/06/30 05:36:32;;;;;;;4.78;1.42;;;14.50;99.90;;;;;;5051696;28;20056;-46
2023/06/30 05:38:57;;;;;;;5.22;1.20;;;14.50;99.90;;;;;;5052440;28;20027;-54
2023/06/30 05:41:23;;;;;;;3.65;1.30;;;14.60;99.90;;;;;;5039958;28;20039;-46
2023/06/30 05:43:48;;;;;;;3.80;1.10;;;14.70;99.90;;;;;;5034642;28;20018;-50
2023/06/30 05:46:14;;;;;;;1.65;0.90;;;14.80;99.90;;;;;;5034669;28;20450;-52
2023/06/30 05:48:40;;;;;;;3.15;0.90;;;15.00;99.90;;;;;;5035953;28;20025;-50
2023/06/30 05:51:05;;;;;;;1.73;1.13;;;15.20;99.90;;;;;;5033315;28;20091;-52
2023/06/30 05:53:31;;;;;;;3.20;1.38;;;15.40;99.90;;;;;;5036037;28;20020;-49
2023/06/30 05:55:56;;;;;;;2.20;1.25;;;15.60;99.90;;;;;;5038614;28;20440;-50
2023/06/30 05:58:25;;;;;;;2.13;0.90;;;15.80;99.90;;;;;;5052536;28;20028;-53
2023/06/30 06:00:51;;;;;;;0.98;0.77;;;16.00;99.90;;;;;;5052292;28;20021;-52
2023/06/30 06:03:17;;;;;;;4.28;1.20;;;16.30;99.90;;;;;;5052173;28;20033;-54
2023/06/30 06:05:42;;;;;;;2.35;1.17;;;16.40;99.90;;;;;;5052200;28;20033;-53
2023/06/30 06:08:08;;;;;;;2.75;1.00;;;16.50;99.90;;;;;;5052254;28;20028;-54
2023/06/30 06:10:33;;;;;;;2.03;1.10;;;16.70;99.90;;;;;;5052181;28;20469;-48
2023/06/30 06:12:59;;;;;;;4.05;1.00;;;16.90;99.90;;;;;;5051902;28;20041;-56
2023/06/30 06:15:24;;;;;;;2.75;1.08;;;17.10;99.90;;;;;;5052052;28;20021;-49
2023/06/30 06:17:50;;;;;;;3.80;1.05;;;17.30;99.90;;;;;;5050600;28;20075;-50
2023/06/30 06:20:16;;;;;;;3.38;1.02;;;17.70;99.90;;;;;;5052126;28;20028;-48
2023/06/30 06:22:41;;;;;;;2.78;0.93;;;18.00;99.90;;;;;;5051970;28;20033;-50
2023/06/30 06:25:09;;;;;;;1.75;0.80;;;18.40;99.90;;;;;;5051677;28;20448;-50
2023/06/30 06:27:37;;;;;;;1.83;0.88;;;18.70;99.90;;;;;;5051720;28;20082;-49
2023/06/30 06:30:04;;;;;;;1.27;0.82;;;18.70;99.90;;;;;;5051633;28;20036;-54
2023/06/30 06:32:29;;;;;;;3.67;0.88;;;18.70;99.90;;;;;;5051600;28;20032;-48
2023/06/30 06:34:55;;;;;;;2.42;0.82;;;18.80;99.90;;;;;;5051371;28;20167;-52
2023/06/30 06:37:21;;;;;;;1.52;0.80;;;18.70;99.90;;;;;;5051551;28;20028;-45
2023/06/30 06:39:46;;;;;;;1.20;0.85;;;18.60;99.90;;;;;;5051487;28;20120;-49
2023/06/30 06:42:12;;;;;;;1.55;0.93;;;18.70;99.90;;;;;;5051424;28;20021;-45
2023/06/30 06:44:37;;;;;;;0.70;0.60;;;18.80;99.90;;;;;;5051524;28;20658;-50
2023/06/30 06:47:40;;;;;;;4.38;0.90;;;18.80;99.90;;;;;;5048514;28;20020;-51
2023/06/30 06:50:06;;;;;;;1.98;0.75;;;18.70;99.90;;;;;;5045225;28;20029;-51
2023/06/30 06:52:32;;;;;;;1.83;0.75;;;18.80;99.90;;;;;;5050019;28;20103;-51
2023/06/30 06:54:57;;;;;;;1.08;0.70;;;18.90;99.90;;;;;;5050035;28;20032;-46
2023/06/30 06:57:23;;;;;;;2.25;0.90;;;19.10;99.90;;;;;;5049429;28;20053;-43
2023/06/30 06:59:49;;;;;;;2.13;0.93;;;19.20;99.90;;;;;;5051334;28;20025;-46
2023/06/30 07:02:14;;;;;;;1.55;0.77;;;19.20;99.90;;;;;;5036031;28;20021;-48
2023/06/30 07:04:40;;;;;;;3.30;0.70;;;19.30;99.90;;;;;;5035535;28;20030;-50
2023/06/30 07:07:05;;;;;;;0.90;0.70;;;19.60;99.90;;;;;;5037737;28;20029;-53
2023/06/30 07:09:31;;;;;;;2.22;0.80;;;19.90;99.90;;;;;;5037183;28;20022;-44
2023/06/30 07:11:56;;;;;;;3.10;0.82;;;20.20;99.90;;;;;;5035415;28;20060;-53
2023/06/30 07:14:23;;;;;;;1.52;0.73;;;20.40;99.90;;;;;;5039109;28;20036;-48
2023/06/30 07:16:49;;;;;;;1.02;0.60;;;20.60;99.90;;;;;;5041031;28;20048;-48
2023/06/30 07:19:15;;;;;;;2.83;1.00;;;20.80;99.90;;;;;;5049221;28;20036;-47
2023/06/30 07:21:40;;;;;;;3.97;1.00;;;21.10;99.90;;;;;;5041040;28;20029;-50
2023/06/30 07:24:06;;;;;;;0.90;0.60;;;21.40;99.90;;;;;;5037851;28;20099;-56
2023/06/30 07:26:33;;;;;;;0.95;0.68;;;21.70;99.90;;;;;;5036871;28;20390;-49
2023/06/30 07:28:59;;;;;;;1.80;0.93;;;22.10;99.90;;;;;;5035890;28;20360;-48
2023/06/30 07:31:24;;;;;;;1.23;0.60;;;22.40;99.90;;;;;;5050300;28;20104;-48
2023/06/30 07:33:50;;;;;;;1.77;0.93;;;22.60;99.90;;;;;;5050296;28;20098;-44
2023/06/30 07:36:15;;;;;;;0.40;0.40;;;22.90;99.90;;;;;;5050518;28;20025;-54
2023/06/30 07:38:41;;;;;;;1.95;0.73;;;22.90;99.90;;;;;;5050524;28;20020;-50
2023/06/30 07:41:07;;;;;;;1.40;0.63;;;22.80;99.90;;;;;;5049150;28;20029;-45
2023/06/30 07:43:32;;;;;;;1.83;0.90;;;22.90;99.90;;;;;;5040694;28;20385;-45
2023/06/30 07:45:58;;;;;;;1.55;0.93;;;22.90;99.90;;;;;;5044597;28;20025;-49
2023/06/30 07:48:23;;;;;;;1.52;0.40;;;23.20;99.90;;;;;;5046741;28;20021;-45
2023/06/30 07:50:49;;;;;;;1.95;0.77;;;23.30;99.90;;;;;;5047475;28;20513;-56
2023/06/30 07:53:15;;;;;;;2.47;0.82;;;23.20;99.90;;;;;;5048186;28;20528;-55
2023/06/30 07:55:40;;;;;;;2.05;0.70;;;23.00;99.90;;;;;;5044144;28;20025;-47
2023/06/30 07:58:06;;;;;;;2.05;0.70;;;22.70;99.90;;;;;;5049664;28;20028;-44
2023/06/30 08:00:31;;;;;;;1.67;0.57;;;22.30;99.90;;;;;;5044720;28;20029;-55
2023/06/30 08:02:57;;;;;;;2.95;0.85;;;22.10;99.90;;;;;;5044083;28;20022;-50
2023/06/30 08:05:22;;;;;;;1.55;0.52;;;22.40;99.90;;;;;;5039416;28;20033;-53
2023/06/30 08:07:48;;;;;;;6.18;0.57;;;22.80;99.90;;;;;;5036204;28;20096;-46
2023/06/30 08:10:14;;;;;;;2.00;0.70;;;23.20;99.90;;;;;;5062438;28;20080;-44
2023/06/30 08:12:40;;;;;;;0.47;0.40;;;23.60;99.90;;;;;;5045413;28;20037;-58
2023/06/30 08:15:06;;;;;;;3.42;0.68;;;23.80;99.90;;;;;;5084792;28;20115;-50
2023/06/30 08:17:32;;;;;;;1.38;0.55;;;24.10;99.90;;;;;;5053611;28;20409;-46
2023/06/30 08:19:57;;;;;;;1.40;0.60;;;24.40;99.90;;;;;;5085891;28;20021;-46
2023/06/30 08:22:23;;;;;;;0.73;0.50;;;24.70;99.90;;;;;;5086136;28;20394;-55
2023/06/30 08:24:49;;;;;;;3.17;0.50;;;24.80;99.90;;;;;;5053377;28;20025;-52
2023/06/30 08:27:16;;;;;;;2.17;0.80;;;24.10;99.90;;;;;;5049457;28;20036;-47
2023/06/30 08:29:42;;;;;;;1.02;0.50;;;23.60;99.90;;;;;;5047221;28;20025;-47
2023/06/30 08:32:08;;;;;;;3.20;0.80;;;23.10;99.90;;;;;;5034838;28;20041;-42
2023/06/30 08:34:34;;;;;;;1.58;0.50;;;22.60;99.90;;;;;;5036628;28;20091;-49
2023/06/30 08:36:59;;;;;;;2.22;0.65;;;22.30;99.90;;;;;;5035404;28;20371;-46
2023/06/30 08:39:31;;;;;;;5.95;0.93;;;22.10;99.90;;;;;;5035166;28;20429;-44
2023/06/30 08:41:59;;;;;;;2.45;0.90;;;21.90;99.90;;;;;;5035302;28;20030;-43
2023/06/30 08:44:25;;;;;;;1.73;0.80;;;21.70;99.90;;;;;;5035081;28;20041;-44
2023/06/30 08:46:53;;;;;;;3.78;0.95;;;21.50;99.90;;;;;;5036044;28;20026;-42
2023/06/30 08:49:22;;;;;;;3.10;0.80;;;21.40;99.90;;;;;;5035126;28;20026;-46
2023/06/30 08:51:50;;;;;;;1.08;0.60;;;21.40;99.90;;;;;;5036271;28;20118;-45
2023/06/30 08:54:16;;;;;;;1.45;0.80;;;21.30;99.90;;;;;;5058454;28;20171;-42
2023/06/30 08:56:42;;;;;;;0.80;0.60;;;21.40;99.90;;;;;;5049166;28;20111;-50
2023/06/30 08:59:08;;;;;;;2.35;1.05;;;21.50;99.90;;;;;;5053327;28;20029;-42
2023/06/30 09:01:36;;;;;;;3.65;0.82;;;21.40;99.90;;;;;;5053389;28;20021;-50
2023/06/30 09:04:04;;;;;;;2.65;0.80;;;21.30;99.90;;;;;;5033471;28;20033;-55
2023/06/30 09:06:32;;;;;;;2.10;0.68;;;21.30;99.90;;;;;;5040788;28;20045;-55
2023/06/30 09:09:09;;;;;;;1.08;0.75;;;21.30;99.90;;;;;;5042039;28;20363;-49
2023/06/30 09:11:36;;;;;;;3.40;0.82;;;21.40;99.90;;;;;;5043009;28;20028;-48
2023/06/30 09:14:03;;;;;;;4.93;0.80;;;21.20;99.90;;;;;;5043447;28;20040;-57
2023/06/30 09:16:33;;;;;;;2.13;0.90;;;21.20;99.90;;;;;;5042309;28;20104;-48
2023/06/30 09:18:58;;;;;;;1.75;0.85;;;21.20;99.90;;;;;;5052833;28;20519;-47
2023/06/30 09:21:24;;;;;;;1.38;0.70;;;21.30;99.90;;;;;;5048877;28;20104;-43
2023/06/30 09:23:53;;;;;;;0.90;0.65;;;21.30;99.90;;;;;;5058618;28;20342;-43
2023/06/30 09:26:18;;;;;;;1.87;0.77;;;21.40;99.90;;;;;;5054860;28;20029;-46
2023/06/30 09:28:45;;;;;;;2.00;0.90;;;21.50;99.90;;;;;;5044715;28;20360;-46
2023/06/30 09:31:12;;;;;;;1.80;1.00;;;21.50;99.90;;;;;;5043354;28;20027;-50
2023/06/30 09:33:42;;;;;;;1.95;0.60;;;21.60;99.90;;;;;;5036021;28;20037;-48
2023/06/30 09:36:07;;;;;;;4.72;0.75;;;21.40;99.90;;;;;;5038466;28;20030;-49
2023/06/30 09:38:35;;;;;;;3.03;0.52;;;21.30;99.90;;;;;;5052063;28;20067;-49
2023/06/30 09:41:05;;;;;;;1.52;1.10;;;21.40;99.90;;;;;;5052702;28;20024;-59
2023/06/30 09:43:31;;;;;;;2.38;0.68;;;21.20;99.90;;;;;;5052230;28;20576;-58
2023/06/30 09:45:59;;;;;;;5.07;0.70;;;21.00;99.90;;;;;;5049050;28;20029;-59
2023/06/30 09:48:43;;;;;;;4.57;0.68;;;21.20;99.90;;;;;;5039112;28;20034;-51
2023/06/30 09:51:09;;;;;;;4.07;0.90;;;21.50;99.90;;;;;;5043589;28;20021;-52
2023/06/30 09:53:36;;;;;;;3.17;0.95;;;22.10;99.90;;;;;;5042329;28;20033;-56
2023/06/30 09:56:02;;;;;;;3.70;0.77;;;22.90;99.90;;;;;;5049649;28;20029;-48
2023/06/30 09:58:27;;;;;;;1.85;0.65;;;23.90;99.90;;;;;;5052283;28;20017;-50
2023/06/30 10:00:53;;;;;;;2.38;0.70;;;24.60;99.90;;;;;;5051989;28;20151;-48
2023/06/30 10:03:19;;;;;;;1.90;0.82;;;25.00;99.90;;;;;;5052003;28;20469;-47
2023/06/30 10:05:47;;;;;;;1.55;0.80;;;24.90;99.90;;;;;;5046228;28;20029;-44
2023/06/30 10:08:14;;;;;;;4.22;1.10;;;24.60;99.90;;;;;;5044934;28;20041;-47
2023/06/30 10:10:43;;;;;;;2.88;0.63;;;24.80;99.90;;;;;;5048604;28;20409;-43
2023/06/30 10:13:13;;;;;;;3.78;0.88;;;25.10;99.90;;;;;;5039882;28;20390;-45
2023/06/30 10:15:39;;;;;;;2.05;0.52;;;24.50;99.90;;;;;;5040993;28;20481;-49
2023/06/30 10:18:08;;;;;;;2.03;1.13;;;23.80;99.90;;;;;;5042435;28;20030;-47
2023/06/30 10:20:34;;;;;;;2.90;0.70;;;23.90;99.90;;;;;;5042357;28;20025;-45
2023/06/30 10:23:01;;;;;;;2.10;0.77;;;24.30;99.90;;;;;;5043482;28;20036;-45
2023/06/30 10:25:29;;;;;;;2.53;0.70;;;24.30;99.90;;;;;;5048106;28;20036;-44
2023/06/30 10:27:55;;;;;;;1.87;0.90;;;23.70;99.90;;;;;;5049489;28;20063;-48
2023/06/30 10:30:21;;;;;;;4.47;0.90;;;23.30;99.90;;;;;;5036922;28;20032;-43
2023/06/30 10:32:47;;;;;;;2.72;0.68;;;22.70;99.90;;;;;;5047585;28;20064;-47
2023/06/30 10:35:14;;;;;;;4.32;1.10;;;22.90;99.90;;;;;;5043394;28;20107;-47
2023/06/30 10:37:41;;;;;;;7.18;2.47;;;23.20;99.90;;;;;;5046958;28;20025;-46
2023/06/30 10:40:24;;;;;;;2.67;0.98;;;23.20;99.90;;;;;;5043165;28;20441;-44
2023/06/30 10:42:51;;;;;;;2.28;0.93;;;23.10;99.90;;;;;;5035239;28;20075;-44
2023/06/30 10:45:16;;;;;;;1.65;0.70;;;22.90;99.90;;;;;;5035906;28;20072;-42
2023/06/30 10:47:48;;;;;;;2.80;0.90;;;22.70;99.90;;;;;;5034593;28;20390;-47
2023/06/30 10:50:14;;;;;;;3.63;0.77;;;22.30;99.90;;;;;;5034147;28;20025;-46
2023/06/30 10:52:49;;;;;;;2.92;1.00;;;22.00;99.90;;;;;;5031798;28;20061;-44
2023/06/30 10:55:14;;;;;;;4.13;1.10;;;21.60;99.90;;;;;;5035823;28;20384;-45
2023/06/30 10:57:40;;;;;;;3.83;1.00;;;21.30;99.90;;;;;;5049662;28;20031;-46
2023/06/30 11:00:14;;;;;;;4.35;1.20;;;20.80;99.90;;;;;;5051046;28;20036;-44
2023/06/30 11:02:59;;;;;;;4.72;1.00;;;20.50;99.90;;;;;;5067692;28;20025;-45
2023/06/30 11:05:29;;;;;;;6.95;1.02;;;20.30;99.90;;;;;;5033855;28;20022;-44
2023/06/30 11:08:09;;;;;;;3.90;1.00;;;20.40;99.90;;;;;;5034432;28;20327;-47
2023/06/30 11:10:44;;;;;;;4.35;1.00;;;20.40;99.90;;;;;;5034568;28;20026;-44
2023/06/30 11:13:10;;;;;;;1.42;0.80;;;20.50;99.90;;;;;;5033322;28;20406;-43
2023/06/30 11:15:55;;;;;;;1.95;1.25;;;20.40;99.90;;;;;;5033723;28;20048;-43
2023/06/30 11:18:24;;;;;;;3.63;0.95;;;20.40;99.90;;;;;;5033373;28;20025;-49
2023/06/30 11:20:59;;;;;;;4.03;1.40;;;20.60;99.90;;;;;;5045523;28;20533;-52
2023/06/30 11:23:32;;;;;;;5.72;1.27;;;20.80;99.90;;;;;;5050675;28;20040;-44
2023/06/30 11:25:58;;;;;;;5.72;0.90;;;20.80;99.90;;;;;;5049240;28;20021;-45
2023/06/30 11:28:28;;;;;;;3.15;0.85;;;20.80;99.90;;;;;;5050670;28;20033;-45
2023/06/30 11:30:54;;;;;;;6.57;1.38;;;21.00;99.90;;;;;;5050582;28;20386;-44
2023/06/30 11:33:20;;;;;;;4.88;1.50;;;20.90;99.90;;;;;;5050844;28;20044;-45
2023/06/30 11:35:50;;;;;;;4.53;1.20;;;20.90;99.90;;;;;;5050218;28;20021;-46
2023/06/30 11:38:16;;;;;;;4.07;1.20;;;20.80;99.90;;;;;;5048916;28;20031;-47
2023/06/30 11:40:46;;;;;;;2.47;1.00;;;20.60;99.90;;;;;;5044987;28;20025;-44
2023/06/30 11:43:12;;;;;;;5.55;0.90;;;20.50;99.90;;;;;;5041755;28;20025;-43
2023/06/30 11:45:38;;;;;;;4.80;1.10;;;20.30;99.90;;;;;;5045581;28;20040;-45
2023/06/30 11:48:05;;;;;;;6.43;1.25;;;20.00;99.90;;;;;;5039421;28;20072;-45
2023/06/30 11:50:33;;;;;;;4.63;1.02;;;19.80;99.90;;;;;;5037323;28;20049;-44
2023/06/30 11:53:00;;;;;;;3.08;1.10;;;19.60;99.90;;;;;;5037650;28;20120;-41
2023/06/30 11:55:28;;;;;;;5.50;1.55;;;19.50;99.90;;;;;;5035704;28;20091;-43
2023/06/30 11:57:54;;;;;;;5.80;1.45;;;19.40;99.90;;;;;;5050070;28;20358;-50
2023/06/30 12:00:22;;;;;;;6.32;1.35;;;19.30;99.90;;;;;;5045236;28;20079;-51
2023/06/30 12:02:48;;;;;;;5.82;1.05;;;19.30;99.90;;;;;;5040857;28;20442;-48
2023/06/30 12:05:23;;;;;;;5.10;1.10;;;19.20;99.90;;;;;;5032893;28;20060;-45
2023/06/30 12:07:52;;;;;;;6.05;1.27;;;19.10;99.90;;;;;;5036696;28;20025;-50
2023/06/30 12:10:18;;;;;;;4.47;1.37;;;19.00;99.90;;;;;;5043275;28;20037;-42
2023/06/30 12:12:52;;;;;;;3.22;1.35;;;19.00;99.90;;;;;;5044043;28;20176;-45
2023/06/30 12:15:17;;;;;;;3.50;1.20;;;19.00;99.90;;;;;;5039775;28;20026;-49
2023/06/30 12:17:43;;;;;;;4.40;1.20;;;19.10;99.90;;;;;;5041586;28;20029;-47
2023/06/30 12:20:11;;;;;;;4.88;1.48;;;19.00;99.90;;;;;;5041291;28;20017;-48
2023/06/30 12:22:41;;;;;;;8.27;1.88;;;18.90;99.90;;;;;;5046499;28;20089;-46
2023/06/30 12:25:11;;;;;;;9.20;1.40;;;18.90;99.90;;;;;;5043068;28;20029;-42
2023/06/30 12:27:41;;;;;;;6.70;1.63;;;18.80;99.90;;;;;;5037129;28;20039;-48
2023/06/30 12:30:16;;;;;;;5.10;1.60;;;18.70;99.90;;;;;;5035266;28;20028;-42
2023/06/30 12:32:43;;;;;;;5.70;1.30;;;18.60;99.90;;;;;;5045923;28;20036;-46
2023/06/30 12:35:09;;;;;;;7.95;2.50;;;18.70;99.90;;;;;;5043725;28;20029;-50
2023/06/30 12:37:35;;;;;;;5.90;2.20;;;18.70;99.90;;;;;;5047666;28;20500;-44
2023/06/30 12:40:01;;;;;;;7.78;2.53;;;18.70;99.90;;;;;;5032251;28;20067;-47
2023/06/30 12:42:29;;;;;;;8.95;2.00;;;18.60;99.90;;;;;;5031263;28;20088;-49
2023/06/30 12:44:55;;;;;;;8.47;1.77;;;18.50;99.90;;;;;;5032241;28;20030;-44
2023/06/30 12:47:21;;;;;;;4.28;1.63;;;18.40;99.90;;;;;;5031016;28;20270;-54